createdAt,value
2023-06-19T00:03:48.620Z,96771.03
2023-06-19T00:09:10.157Z,96778.00
2023-06-19T00:14:31.103Z,96766.06
2023-06-19T00:19:51.794Z,96767.19
2023-06-19T00:25:12.557Z,96758.72
2023-06-19T00:30:33.939Z,96758.13
2023-06-19T00:35:56.300Z,96763.41
2023-06-19T00:41:18.156Z,96759.41
2023-06-19T00:46:41.853Z,96749.78
2023-06-19T00:52:03.197Z,96742.50
2023-06-19T00:57:24.251Z,96746.81
2023-06-19T01:02:45.449Z,96744.25
2023-06-19T01:08:30.358Z,96740.00
2023-06-19T01:14:01.297Z,96746.50
2023-06-19T01:19:22.743Z,96736.84
2023-06-19T01:24:43.448Z,96732.03
2023-06-19T01:30:05.992Z,96725.47
2023-06-19T01:35:30.680Z,96714.06
2023-06-19T01:40:55.746Z,96714.59
2023-06-19T01:46:16.894Z,96711.59
2023-06-19T01:51:38.021Z,96706.31
2023-06-19T01:57:00.230Z,96715.63
2023-06-19T02:02:21.123Z,96719.25
2023-06-19T02:07:44.527Z,96723.91
2023-06-19T02:13:05.329Z,96727.22
2023-06-19T02:18:26.082Z,96723.16
2023-06-19T02:23:46.737Z,96715.50
2023-06-19T02:29:07.615Z,96713.69
2023-06-19T02:34:28.323Z,96721.34
2023-06-19T02:39:49.273Z,96716.44
2023-06-19T02:45:10.554Z,96718.38
2023-06-19T02:50:31.650Z,96719.88
2023-06-19T02:55:52.337Z,96718.78
2023-06-19T03:01:13.159Z,96718.25
2023-06-19T03:06:40.196Z,96724.59
2023-06-19T03:12:01.074Z,96718.31
2023-06-19T03:17:22.288Z,96709.69
2023-06-19T03:22:43.619Z,96705.53
2023-06-19T03:28:07.787Z,96707.34
2023-06-19T03:33:30.124Z,96708.97
2023-06-19T03:38:55.161Z,96698.06
2023-06-19T03:44:19.862Z,96710.25
2023-06-19T03:49:41.052Z,96712.06
2023-06-19T03:55:01.932Z,96715.84
2023-06-19T04:00:22.846Z,96718.31
2023-06-19T04:05:44.982Z,96726.03
2023-06-19T04:11:07.163Z,96722.88
2023-06-19T04:16:27.981Z,96718.56
2023-06-19T04:21:48.631Z,96726.59
2023-06-19T04:27:09.437Z,96719.69
2023-06-19T04:32:30.189Z,96713.41
2023-06-19T04:37:51.174Z,96718.72
2023-06-19T04:43:12.238Z,96720.88
2023-06-19T04:48:32.974Z,96721.09
2023-06-19T04:53:53.770Z,96729.13
2023-06-19T04:59:19.160Z,96732.47
2023-06-19T05:04:39.948Z,96738.50
2023-06-19T05:10:07.483Z,96746.94
2023-06-19T05:15:28.400Z,96754.28
2023-06-19T05:20:49.192Z,96758.69
2023-06-19T05:26:10.205Z,96761.09
2023-06-19T05:31:31.034Z,96752.28
2023-06-19T05:36:51.944Z,96749.84
2023-06-19T05:42:12.723Z,96771.41
2023-06-19T05:47:33.756Z,96774.56
2023-06-19T05:52:55.079Z,96776.59
2023-06-19T05:58:16.160Z,96775.78
2023-06-19T06:03:37.197Z,96781.63
2023-06-19T06:08:57.958Z,96783.66
2023-06-19T06:14:18.593Z,96791.31
2023-06-19T06:19:40.113Z,96797.53
2023-06-19T06:25:01.374Z,96802.38
2023-06-19T06:30:22.408Z,96809.59
2023-06-19T06:35:43.446Z,96812.69
2023-06-19T06:41:04.639Z,96821.66
2023-06-19T06:46:25.459Z,96828.50
2023-06-19T06:51:46.925Z,96829.41
2023-06-19T06:57:08.101Z,96840.91
2023-06-19T07:02:28.854Z,96838.13
2023-06-19T07:07:49.669Z,96845.19
2023-06-19T07:13:10.498Z,96843.22
2023-06-19T07:18:31.130Z,96841.41
2023-06-19T07:23:51.964Z,96872.78
2023-06-19T07:29:12.756Z,96867.88
2023-06-19T07:34:33.569Z,96866.03
2023-06-19T07:39:54.300Z,96856.19
2023-06-19T07:45:15.082Z,96866.81
2023-06-19T07:50:35.715Z,96869.81
2023-06-19T07:55:56.555Z,96871.97
2023-06-19T08:01:18.228Z,96871.38
2023-06-19T08:06:39.052Z,96872.38
2023-06-19T08:11:59.642Z,96866.06
2023-06-19T08:17:21.844Z,96848.72
2023-06-19T08:22:43.013Z,96841.84
2023-06-19T08:28:03.809Z,96849.56
2023-06-19T08:33:24.560Z,96836.50
2023-06-19T08:38:45.085Z,96842.75
2023-06-19T08:44:06.899Z,96837.38
2023-06-19T08:49:30.852Z,96837.44
2023-06-19T08:54:51.930Z,96837.00
2023-06-19T09:00:13.178Z,96838.16
2023-06-19T09:05:34.863Z,96846.16
2023-06-19T09:11:00.925Z,96840.88
2023-06-19T09:16:21.934Z,96838.50
2023-06-19T09:21:42.668Z,96833.84
2023-06-19T09:27:15.100Z,96836.34
2023-06-19T09:32:36.536Z,96835.13
2023-06-19T09:37:58.893Z,96825.97
2023-06-19T09:43:26.664Z,96820.31
2023-06-19T09:48:49.992Z,96823.16
2023-06-19T09:54:11.752Z,96818.88
2023-06-19T09:59:33.210Z,96819.00
2023-06-19T10:04:56.937Z,96814.44
2023-06-19T10:10:27.817Z,96817.72
2023-06-19T10:15:49.371Z,96819.84
2023-06-19T10:21:20.483Z,96828.81
2023-06-19T10:26:41.645Z,96824.94
2023-06-19T10:32:02.531Z,96822.31
2023-06-19T10:37:33.766Z,96819.34
2023-06-19T10:42:54.690Z,96822.44
2023-06-19T10:48:24.343Z,96815.41
2023-06-19T10:53:45.365Z,96810.84
2023-06-19T10:59:10.916Z,96803.69
2023-06-19T11:04:32.020Z,96799.75
2023-06-19T11:09:52.747Z,96796.75
2023-06-19T11:15:13.525Z,96794.09
2023-06-19T11:20:52.521Z,96797.84
2023-06-19T11:26:13.781Z,96793.44
2023-06-19T11:31:34.695Z,96796.59
2023-06-19T11:36:56.015Z,96790.94
2023-06-19T11:42:18.744Z,96794.91
2023-06-19T11:47:39.665Z,96787.66
2023-06-19T11:53:02.151Z,96786.03
2023-06-19T11:58:23.306Z,96782.53
2023-06-19T12:03:44.492Z,96775.94
2023-06-19T12:09:08.017Z,96758.38
2023-06-19T12:14:29.052Z,96760.25
2023-06-19T12:19:50.406Z,96761.16
2023-06-19T12:25:11.945Z,96757.53
2023-06-19T12:30:32.962Z,96769.50
2023-06-19T12:35:54.112Z,96765.47
2023-06-19T12:41:14.963Z,96773.34
2023-06-19T12:46:36.004Z,96783.22
2023-06-19T12:51:57.292Z,96777.91
2023-06-19T12:57:17.991Z,96773.94
2023-06-19T13:02:40.844Z,96777.88
2023-06-19T13:08:02.031Z,96780.00
2023-06-19T13:13:22.696Z,96786.09
2023-06-19T13:18:43.566Z,96779.47
2023-06-19T13:24:04.678Z,96783.09
2023-06-19T13:29:25.452Z,96788.69
2023-06-19T13:34:46.316Z,96783.44
2023-06-19T13:40:08.458Z,96784.56
2023-06-19T13:45:29.328Z,96781.72
2023-06-19T13:50:50.464Z,96785.09
2023-06-19T13:56:12.448Z,96774.44
2023-06-19T14:01:33.902Z,96776.63
2023-06-19T14:06:56.081Z,96770.13
2023-06-19T14:12:17.096Z,96760.97
2023-06-19T14:17:37.971Z,96757.72
2023-06-19T14:22:58.564Z,96759.91
2023-06-19T14:28:19.461Z,96758.75
2023-06-19T14:33:40.645Z,96755.06
2023-06-19T14:39:01.946Z,96744.59
2023-06-19T14:44:22.908Z,96746.94
2023-06-19T14:49:43.712Z,96751.47
2023-06-19T14:55:04.699Z,96758.44
2023-06-19T15:00:26.037Z,96749.00
2023-06-19T15:05:46.792Z,96755.88
2023-06-19T15:11:07.656Z,96748.78
2023-06-19T15:16:28.530Z,96749.25
2023-06-19T15:21:49.341Z,96746.47
2023-06-19T15:27:10.168Z,96737.75
2023-06-19T15:32:30.962Z,96731.25
2023-06-19T15:37:52.450Z,96728.91
2023-06-19T15:43:13.346Z,96735.66
2023-06-19T15:48:34.995Z,96727.97
2023-06-19T15:53:55.785Z,96723.22
2023-06-19T15:59:16.800Z,96718.94
2023-06-19T16:04:37.533Z,96712.44
2023-06-19T16:09:58.924Z,96710.47
2023-06-19T16:15:25.291Z,96701.69
2023-06-19T16:20:46.163Z,96697.53
2023-06-19T16:26:07.611Z,96694.41
2023-06-19T16:31:28.618Z,96691.81
2023-06-19T16:36:50.452Z,96692.38
2023-06-19T16:42:11.565Z,96679.00
2023-06-19T16:47:32.169Z,96679.09
2023-06-19T16:52:53.648Z,96681.19
2023-06-19T16:58:14.583Z,96675.50
2023-06-19T17:03:35.260Z,96679.63
2023-06-19T17:08:56.124Z,96679.75
2023-06-19T17:14:16.794Z,96693.22
2023-06-19T17:19:37.475Z,96692.31
2023-06-19T17:24:58.255Z,96705.88
2023-06-19T17:30:19.510Z,96701.94
2023-06-19T17:35:40.139Z,96695.78
2023-06-19T17:41:01.673Z,96698.13
2023-06-19T17:46:22.697Z,96699.03
2023-06-19T17:51:43.839Z,96711.44
2023-06-19T17:57:05.002Z,96711.31
2023-06-19T18:02:26.619Z,96712.91
2023-06-19T18:07:47.453Z,96709.88
2023-06-19T18:13:08.786Z,96701.22
2023-06-19T18:18:29.820Z,96708.81
2023-06-19T18:23:50.701Z,96709.16
2023-06-19T18:29:11.819Z,96712.50
2023-06-19T18:34:32.628Z,96717.00
2023-06-19T18:39:53.566Z,96715.44
2023-06-19T18:45:14.138Z,96723.84
2023-06-19T18:50:34.952Z,96715.63
2023-06-19T18:55:56.660Z,96713.09
2023-06-19T19:01:17.534Z,96714.44
2023-06-19T19:06:38.682Z,96721.88
2023-06-19T19:11:59.520Z,96730.06
2023-06-19T19:17:20.461Z,96748.38
2023-06-19T19:22:41.258Z,96738.25
2023-06-19T19:28:02.472Z,96752.44
2023-06-19T19:33:23.252Z,96744.09
2023-06-19T19:38:44.209Z,96752.38
2023-06-19T19:44:05.073Z,96746.91
2023-06-19T19:49:25.839Z,96749.19
2023-06-19T19:54:47.866Z,96753.94
2023-06-19T20:00:09.797Z,96748.50
2023-06-19T20:05:30.718Z,96744.69
2023-06-19T20:10:51.537Z,96752.50
2023-06-19T20:16:12.902Z,96754.19
2023-06-19T20:21:34.111Z,96757.28
2023-06-19T20:26:54.632Z,96762.34
2023-06-19T20:32:15.337Z,96764.25
2023-06-19T20:37:36.310Z,96772.00
2023-06-19T20:42:57.052Z,96769.78
2023-06-19T20:48:19.332Z,96771.44
2023-06-19T20:53:40.290Z,96777.38
2023-06-19T20:59:01.034Z,96774.75
2023-06-19T21:04:22.689Z,96777.44
2023-06-19T21:09:43.616Z,96781.31
2023-06-19T21:15:05.714Z,96774.97
2023-06-19T21:20:27.363Z,96778.88
2023-06-19T21:25:48.652Z,96791.34
2023-06-19T21:31:09.539Z,96796.84
2023-06-19T21:36:30.278Z,96782.38
2023-06-19T21:41:51.333Z,96781.97
2023-06-19T21:47:12.482Z,96796.28
2023-06-19T21:52:34.391Z,96789.97
2023-06-19T21:58:00.067Z,96788.31
2023-06-19T22:03:21.563Z,96790.97
2023-06-19T22:08:43.418Z,96787.88
2023-06-19T22:14:04.577Z,96797.06
2023-06-19T22:19:26.326Z,96790.75
2023-06-19T22:24:47.404Z,96796.03
2023-06-19T22:30:09.090Z,96799.09
2023-06-19T22:35:30.250Z,96794.00
2023-06-19T22:40:51.332Z,96792.78
2023-06-19T22:46:12.226Z,96795.44
2023-06-19T22:51:33.888Z,96801.13
2023-06-19T22:56:54.695Z,96799.91
2023-06-19T23:02:15.359Z,96794.59
2023-06-19T23:07:36.635Z,96805.94
2023-06-19T23:12:57.313Z,96795.38
2023-06-19T23:18:18.656Z,96793.31
2023-06-19T23:23:39.741Z,96796.94
2023-06-19T23:29:00.709Z,96791.41
2023-06-19T23:34:21.619Z,96792.69
2023-06-19T23:39:42.447Z,96794.72
2023-06-19T23:45:03.426Z,96786.81
2023-06-19T23:50:24.445Z,96785.16
2023-06-19T23:55:45.504Z,96779.88
